Time;durP1;ratioP1;P1;durP2;ratioP2;P2;SDS_P1;SDS_P2;PMS_P1;PMS_P2;Temp;Humidity;BMP_temperature;BMP_pressure;BME280_temperature;BME280_humidity;BME280_pressure;Samples;Min_cycle;Max_cycle;Signal;HPM_P1;HPM_P2
2023/06/16 00:01:17;;;;;;;;;;;;;;;25.32;43.04;100327.86;103815;1285;62589;-83
2023/06/16 00:03:49;;;;;;;;;;;;;;;25.32;43.14;100323.55;103692;1284;62087;-83
2023/06/16 00:06:14;;;;;;;;;;;;;;;25.32;43.20;100321.38;103587;1291;62181;-83
2023/06/16 00:08:44;;;;;;;;;;;;;;;25.32;43.15;100321.73;103672;1285;63317;-84
2023/06/16 00:11:13;;;;;;;;;;;;;;;25.32;43.10;100321.60;103568;1285;66486;-83
2023/06/16 00:13:39;;;;;;;;;;;;;;;25.32;43.17;100320.84;103820;1284;62159;-83
2023/06/16 00:16:04;;;;;;;;;;;;;;;25.32;43.19;100315.09;103723;1285;64368;-83
2023/06/16 00:18:31;;;;;;;;;;;;;;;25.32;43.18;100308.58;103746;1284;62190;-83
2023/06/16 00:20:57;;;;;;;;;;;;;;;25.32;43.17;100304.51;103658;1285;62268;-83
2023/06/16 00:23:23;;;;;;;;;;;;;;;25.32;43.22;100302.66;103821;1285;63405;-82
2023/06/16 00:25:49;;;;;;;;;;;;;;;25.32;43.22;100302.83;103844;1288;62078;-83
2023/06/16 00:28:15;;;;;;;;;;;;;;;25.32;43.40;100298.56;103751;1285;62290;-83
2023/06/16 00:30:40;;;;;;;;;;;;;;;25.31;43.22;100295.20;103749;1285;62640;-82
2023/06/16 00:33:06;;;;;;;;;;;;;;;25.31;43.35;100293.20;103776;1285;62191;-82
2023/06/16 00:35:32;;;;;;;;;;;;;;;25.31;43.32;100293.02;103893;1285;62144;-82
2023/06/16 00:37:57;;;;;;;;;;;;;;;25.31;43.37;100293.58;103659;1285;62292;-83
2023/06/16 00:40:23;;;;;;;;;;;;;;;25.31;43.36;100291.99;103765;1285;62192;-83
2023/06/16 00:42:49;;;;;;;;;;;;;;;25.30;43.46;100291.14;103661;1286;62133;-83
2023/06/16 00:45:15;;;;;;;;;;;;;;;25.30;43.35;100290.23;103818;1285;66988;-83
2023/06/16 00:47:40;;;;;;;;;;;;;;;25.31;43.39;100291.45;103770;1283;62173;-83
2023/06/16 00:50:06;;;;;;;;;;;;;;;25.30;43.46;100291.48;103664;1286;62237;-83
2023/06/16 00:52:34;;;;;;;;;;;;;;;25.30;43.28;100288.60;103992;1285;62190;-82
2023/06/16 00:55:01;;;;;;;;;;;;;;;25.30;43.35;100286.48;103693;1285;62134;-82
2023/06/16 00:57:26;;;;;;;;;;;;;;;25.30;43.33;100283.57;103598;1290;62285;-83
2023/06/16 00:59:51;;;;;;;;;;;;;;;25.30;43.34;100283.39;103615;1285;62272;-83
2023/06/16 01:02:18;;;;;;;;;;;;;;;25.30;43.45;100280.77;103782;1287;62585;-83
2023/06/16 01:04:46;;;;;;;;;;;;;;;25.30;43.50;100278.77;103699;1291;62243;-82
2023/06/16 01:07:20;;;;;;;;;;;;;;;25.30;43.38;100275.52;103790;1285;62179;-83
2023/06/16 01:09:54;;;;;;;;;;;;;;;25.30;43.48;100276.44;103724;1286;62182;-83
2023/06/16 01:12:32;;;;;;;;;;;;;;;25.29;43.44;100279.00;103647;1285;63800;-83
2023/06/16 01:15:04;;;;;;;;;;;;;;;25.30;43.53;100278.06;103796;1283;67652;-83
2023/06/16 01:17:30;;;;;;;;;;;;;;;25.30;43.60;100276.07;103778;1285;62528;-83
2023/06/16 01:20:01;;;;;;;;;;;;;;;25.30;43.52;100277.15;103787;1284;62306;-83
2023/06/16 01:22:30;;;;;;;;;;;;;;;25.30;43.50;100274.11;103783;1290;64856;-83
2023/06/16 01:24:55;;;;;;;;;;;;;;;25.29;43.55;100275.04;103776;1284;67359;-83
2023/06/16 01:27:21;;;;;;;;;;;;;;;25.30;43.66;100276.98;103643;1291;62203;-83
2023/06/16 01:29:48;;;;;;;;;;;;;;;25.30;43.63;100278.27;103682;1285;62271;-83
2023/06/16 01:32:14;;;;;;;;;;;;;;;25.30;43.63;100284.34;103608;1283;62182;-83
2023/06/16 01:34:39;;;;;;;;;;;;;;;25.29;43.55;100283.48;103870;1288;62134;-84
2023/06/16 01:37:05;;;;;;;;;;;;;;;25.29;43.65;100283.15;103641;1286;62301;-83
2023/06/16 01:39:31;;;;;;;;;;;;;;;25.29;43.68;100281.55;103903;1288;62249;-82
2023/06/16 01:41:58;;;;;;;;;;;;;;;25.29;43.82;100281.73;103735;1285;62107;-82
2023/06/16 01:44:25;;;;;;;;;;;;;;;25.29;43.59;100279.23;103686;1285;64151;-83
2023/06/16 01:46:50;;;;;;;;;;;;;;;25.29;43.70;100280.31;103752;1288;67914;-83
2023/06/16 01:49:16;;;;;;;;;;;;;;;25.28;43.61;100279.29;103765;1285;63412;-83
2023/06/16 01:51:42;;;;;;;;;;;;;;;25.28;43.69;100278.71;103575;1288;62163;-83
2023/06/16 01:54:08;;;;;;;;;;;;;;;25.28;43.66;100276.41;103660;1285;62220;-83
2023/06/16 01:56:33;;;;;;;;;;;;;;;25.27;43.67;100272.99;103755;1286;63161;-83
2023/06/16 01:58:59;;;;;;;;;;;;;;;25.27;43.77;100272.48;103874;1288;62213;-82
2023/06/16 02:01:30;;;;;;;;;;;;;;;25.27;43.86;100271.23;103599;1286;62149;-82
2023/06/16 02:03:56;;;;;;;;;;;;;;;25.27;43.79;100267.98;103745;1288;62701;-83
2023/06/16 02:06:23;;;;;;;;;;;;;;;25.27;43.76;100267.62;103782;1286;62208;-83
2023/06/16 02:08:48;;;;;;;;;;;;;;;25.27;43.88;100267.12;103779;1285;62751;-83
2023/06/16 02:11:14;;;;;;;;;;;;;;;25.26;43.81;100266.80;103719;1284;62483;-84
2023/06/16 02:13:40;;;;;;;;;;;;;;;25.27;43.77;100266.95;103650;1291;62208;-83
2023/06/16 02:16:06;;;;;;;;;;;;;;;25.26;43.89;100266.10;103786;1285;63460;-83
2023/06/16 02:18:32;;;;;;;;;;;;;;;25.25;43.79;100264.20;103606;1285;62210;-83
2023/06/16 02:20:58;;;;;;;;;;;;;;;25.26;43.79;100266.13;103871;1284;66455;-82
2023/06/16 02:23:24;;;;;;;;;;;;;;;25.26;43.67;100263.23;103829;1285;62197;-82
2023/06/16 02:25:50;;;;;;;;;;;;;;;25.26;43.75;100265.41;103854;1285;62132;-83
2023/06/16 02:28:16;;;;;;;;;;;;;;;25.25;43.92;100261.50;103606;1286;62194;-83
2023/06/16 02:30:42;;;;;;;;;;;;;;;25.25;43.94;100262.61;103904;1285;62184;-83
2023/06/16 02:33:07;;;;;;;;;;;;;;;25.25;43.86;100266.89;103849;1288;62105;-83
2023/06/16 02:35:34;;;;;;;;;;;;;;;25.25;43.77;100268.34;103817;1284;62586;-83
2023/06/16 02:38:00;;;;;;;;;;;;;;;25.25;43.88;100267.98;103879;1288;62598;-83
2023/06/16 02:40:25;;;;;;;;;;;;;;;25.25;43.81;100266.19;103584;1285;63861;-83
2023/06/16 02:42:51;;;;;;;;;;;;;;;25.25;43.72;100259.77;103868;1286;62219;-83
2023/06/16 02:45:17;;;;;;;;;;;;;;;25.25;43.79;100259.95;103657;1286;62137;-82
2023/06/16 02:47:42;;;;;;;;;;;;;;;25.25;43.80;100258.66;103713;1286;62209;-82
2023/06/16 02:50:09;;;;;;;;;;;;;;;25.25;43.70;100260.30;103827;1286;63447;-83
2023/06/16 02:52:35;;;;;;;;;;;;;;;25.25;43.74;100265.70;103600;1285;62205;-84
2023/06/16 02:55:02;;;;;;;;;;;;;;;25.24;43.67;100263.41;103740;1287;62304;-84
2023/06/16 02:57:27;;;;;;;;;;;;;;;25.24;43.73;100266.27;103653;1285;62549;-84
2023/06/16 02:59:55;;;;;;;;;;;;;;;25.24;43.75;100268.64;103647;1285;62174;-83
2023/06/16 03:02:21;;;;;;;;;;;;;;;25.24;43.66;100268.27;103782;1288;64983;-82
2023/06/16 03:04:48;;;;;;;;;;;;;;;25.24;43.65;100265.06;103898;1283;62527;-82
2023/06/16 03:07:14;;;;;;;;;;;;;;;25.24;43.91;100261.28;103801;1283;62199;-82
2023/06/16 03:09:41;;;;;;;;;;;;;;;25.24;43.78;100258.55;103780;1285;62133;-82
2023/06/16 03:12:07;;;;;;;;;;;;;;;25.25;43.62;100255.78;103697;1285;63126;-82
2023/06/16 03:14:32;;;;;;;;;;;;;;;25.24;43.64;100253.48;103677;1284;63267;-83
2023/06/16 03:17:00;;;;;;;;;;;;;;;25.24;43.58;100256.21;103650;1284;62138;-83
2023/06/16 03:19:25;;;;;;;;;;;;;;;25.24;43.72;100259.96;103666;1285;62254;-81
2023/06/16 03:21:51;;;;;;;;;;;;;;;25.25;43.56;100265.70;103593;1285;65495;-83
2023/06/16 03:24:16;;;;;;;;;;;;;;;25.25;43.60;100269.83;103597;1285;63572;-83
2023/06/16 03:26:43;;;;;;;;;;;;;;;25.25;43.65;100268.23;103805;1285;62189;-83
2023/06/16 03:29:09;;;;;;;;;;;;;;;25.25;43.69;100269.99;103751;1285;62145;-84
2023/06/16 03:31:34;;;;;;;;;;;;;;;25.25;43.65;100266.76;103779;1284;62181;-82
2023/06/16 03:34:00;;;;;;;;;;;;;;;25.25;43.73;100268.04;103607;1285;62251;-83
2023/06/16 03:36:26;;;;;;;;;;;;;;;25.25;43.69;100262.29;103685;1291;62181;-83
2023/06/16 03:38:52;;;;;;;;;;;;;;;25.26;43.53;100266.35;103638;1285;62288;-83
2023/06/16 03:41:17;;;;;;;;;;;;;;;25.25;43.56;100266.21;103809;1288;62182;-83
2023/06/16 03:43:42;;;;;;;;;;;;;;;25.25;43.58;100265.16;103727;1291;62128;-83
2023/06/16 03:46:08;;;;;;;;;;;;;;;25.25;43.46;100266.76;103920;1286;62197;-82
2023/06/16 03:48:33;;;;;;;;;;;;;;;25.25;43.47;100263.91;103645;1290;62616;-82
2023/06/16 03:50:59;;;;;;;;;;;;;;;25.25;43.51;100271.47;103650;1285;63262;-83
2023/06/16 03:53:24;;;;;;;;;;;;;;;25.25;43.63;100269.68;103708;1286;62143;-83
2023/06/16 03:55:50;;;;;;;;;;;;;;;25.25;43.41;100272.02;103757;1285;62208;-83
2023/06/16 03:58:15;;;;;;;;;;;;;;;25.25;43.46;100273.67;103750;1285;62207;-83
2023/06/16 04:00:43;;;;;;;;;;;;;;;25.24;43.47;100275.19;103622;1291;62214;-84
2023/06/16 04:03:09;;;;;;;;;;;;;;;25.23;43.44;100273.45;103705;1285;63543;-83
2023/06/16 04:05:35;;;;;;;;;;;;;;;25.23;43.43;100271.13;103692;1288;62280;-83
2023/06/16 04:08:01;;;;;;;;;;;;;;;25.23;43.38;100267.20;103603;1285;62123;-83
2023/06/16 04:10:27;;;;;;;;;;;;;;;25.23;43.34;100264.67;103672;1286;63364;-83
2023/06/16 04:12:53;;;;;;;;;;;;;;;25.22;43.33;100262.20;103897;1286;62197;-83
2023/06/16 04:15:19;;;;;;;;;;;;;;;25.23;43.39;100259.10;103831;1285;62532;-82
2023/06/16 04:17:45;;;;;;;;;;;;;;;25.23;43.32;100258.90;103718;1290;62244;-83
2023/06/16 04:20:11;;;;;;;;;;;;;;;25.22;43.27;100261.46;103743;1284;63974;-83
2023/06/16 04:22:37;;;;;;;;;;;;;;;25.22;43.33;100263.08;103881;1284;62255;-83
2023/06/16 04:25:03;;;;;;;;;;;;;;;25.22;43.21;100260.02;103869;1285;62202;-83
2023/06/16 04:27:31;;;;;;;;;;;;;;;25.22;43.27;100260.02;103589;1285;62205;-83
2023/06/16 04:29:57;;;;;;;;;;;;;;;25.22;43.22;100256.08;103853;1284;62617;-83
2023/06/16 04:32:23;;;;;;;;;;;;;;;25.22;43.16;100254.10;103775;1288;62175;-84
2023/06/16 04:34:49;;;;;;;;;;;;;;;25.23;43.19;100255.11;103819;1285;62974;-84
2023/06/16 04:37:15;;;;;;;;;;;;;;;25.23;43.27;100253.66;103929;1285;62085;-82
2023/06/16 04:39:40;;;;;;;;;;;;;;;25.22;43.14;100253.52;103863;1285;63341;-82
2023/06/16 04:42:08;;;;;;;;;;;;;;;25.22;43.23;100250.36;104079;1285;62097;-82
2023/06/16 04:44:34;;;;;;;;;;;;;;;25.22;43.21;100250.45;104270;1288;66407;-81
2023/06/16 04:47:00;;;;;;;;;;;;;;;25.22;43.25;100253.02;104325;1286;62197;-81
2023/06/16 04:49:26;;;;;;;;;;;;;;;25.22;43.24;100258.25;104033;1285;62106;-82
2023/06/16 04:51:51;;;;;;;;;;;;;;;25.22;43.30;100260.95;103953;1288;62193;-81
2023/06/16 04:54:18;;;;;;;;;;;;;;;25.22;43.23;100261.15;103739;1290;62300;-81
2023/06/16 04:56:45;;;;;;;;;;;;;;;25.21;43.17;100263.59;103260;1291;62111;-82
2023/06/16 04:59:11;;;;;;;;;;;;;;;25.20;43.20;100265.59;103612;1291;62178;-81
2023/06/16 05:01:37;;;;;;;;;;;;;;;25.21;43.19;100269.88;103511;1288;62260;-81
2023/06/16 05:04:02;;;;;;;;;;;;;;;25.21;43.28;100270.19;103512;1292;62226;-81
2023/06/16 05:06:29;;;;;;;;;;;;;;;25.21;43.19;100272.33;103619;1291;62176;-81
2023/06/16 05:08:55;;;;;;;;;;;;;;;25.22;43.21;100274.83;103583;1293;62306;-81
2023/06/16 05:11:20;;;;;;;;;;;;;;;25.21;43.18;100275.83;103651;1288;62253;-82
2023/06/16 05:13:46;;;;;;;;;;;;;;;25.20;43.15;100274.98;103511;1293;63438;-81
2023/06/16 05:16:12;;;;;;;;;;;;;;;25.20;43.17;100275.34;103656;1291;62113;-81
2023/06/16 05:18:37;;;;;;;;;;;;;;;25.20;43.21;100278.25;103715;1293;62863;-81
2023/06/16 05:21:03;;;;;;;;;;;;;;;25.20;43.16;100277.88;103863;1291;62290;-81
2023/06/16 05:23:29;;;;;;;;;;;;;;;25.20;43.29;100278.56;103688;1288;62133;-81
2023/06/16 05:25:54;;;;;;;;;;;;;;;25.21;43.33;100274.77;104575;1285;62193;-85
2023/06/16 05:28:20;;;;;;;;;;;;;;;25.20;43.32;100271.92;104663;1285;62202;-82
2023/06/16 05:30:45;;;;;;;;;;;;;;;25.19;43.25;100273.50;104583;1285;62434;-81
2023/06/16 05:33:11;;;;;;;;;;;;;;;25.16;43.34;100272.31;104343;1288;62331;-82
2023/06/16 05:35:37;;;;;;;;;;;;;;;25.14;43.34;100277.95;104582;1285;62528;-82
2023/06/16 05:38:02;;;;;;;;;;;;;;;25.12;43.45;100276.69;104592;1284;62153;-83
2023/06/16 05:40:27;;;;;;;;;;;;;;;25.12;43.35;100273.64;104542;1285;65328;-83
2023/06/16 05:42:53;;;;;;;;;;;;;;;25.12;43.41;100276.69;105225;1285;62154;-80
2023/06/16 05:45:18;;;;;;;;;;;;;;;25.12;43.53;100276.92;104972;1284;61934;-82
2023/06/16 05:47:44;;;;;;;;;;;;;;;25.11;43.49;100281.46;105222;1285;62207;-83
2023/06/16 05:50:09;;;;;;;;;;;;;;;25.09;43.59;100283.41;105226;1285;62305;-81
2023/06/16 05:52:35;;;;;;;;;;;;;;;25.08;43.55;100280.69;105204;1286;62175;-83
2023/06/16 05:55:01;;;;;;;;;;;;;;;25.07;43.70;100278.61;105141;1285;62063;-81
2023/06/16 05:57:26;;;;;;;;;;;;;;;25.06;43.74;100279.05;105264;1285;61879;-83
2023/06/16 06:00:00;;;;;;;;;;;;;;;25.06;43.79;100283.76;104941;1286;62176;-82
2023/06/16 06:02:26;;;;;;;;;;;;;;;25.04;43.86;100281.02;105326;1288;72493;-82
2023/06/16 06:04:51;;;;;;;;;;;;;;;25.02;43.76;100280.54;105110;1285;62138;-82
2023/06/16 06:07:17;;;;;;;;;;;;;;;25.00;43.80;100280.35;104912;1288;62112;-81
2023/06/16 06:09:42;;;;;;;;;;;;;;;25.00;43.90;100280.77;104932;1285;61363;-82
2023/06/16 06:12:10;;;;;;;;;;;;;;;25.00;44.01;100281.29;105172;1284;62263;-83
2023/06/16 06:14:44;;;;;;;;;;;;;;;24.99;43.97;100278.70;105153;1290;63966;-82
2023/06/16 06:17:10;;;;;;;;;;;;;;;25.00;43.95;100280.88;105091;1287;66858;-85
2023/06/16 06:19:35;;;;;;;;;;;;;;;25.03;44.08;100280.96;104950;1288;62097;-85
2023/06/16 06:22:01;;;;;;;;;;;;;;;25.05;44.16;100279.88;105061;1285;62186;-82
2023/06/16 06:24:26;;;;;;;;;;;;;;;25.07;44.09;100280.77;104744;1285;62177;-82
2023/06/16 06:26:52;;;;;;;;;;;;;;;25.08;44.09;100281.20;105418;1288;62188;-82
2023/06/16 06:29:17;;;;;;;;;;;;;;;25.09;44.11;100283.98;105402;1285;67112;-83
2023/06/16 06:31:43;;;;;;;;;;;;;;;25.10;44.07;100289.60;105570;1285;62180;-83
2023/06/16 06:34:11;;;;;;;;;;;;;;;25.12;44.16;100289.33;105203;1285;62072;-83
2023/06/16 06:36:37;;;;;;;;;;;;;;;25.13;44.25;100288.44;105257;1285;60170;-81
2023/06/16 06:39:02;;;;;;;;;;;;;;;25.16;44.36;100285.85;104911;1285;62198;-83
2023/06/16 06:41:28;;;;;;;;;;;;;;;25.20;44.31;100286.34;104966;1285;62366;-82
2023/06/16 06:43:53;;;;;;;;;;;;;;;25.23;44.40;100287.64;105057;1285;60440;-82
2023/06/16 06:46:19;;;;;;;;;;;;;;;25.26;44.41;100289.93;105097;1284;60304;-81
2023/06/16 06:48:45;;;;;;;;;;;;;;;25.27;44.47;100293.36;105383;1290;72400;-83
2023/06/16 06:51:13;;;;;;;;;;;;;;;25.29;44.42;100293.95;105511;1284;62094;-81
2023/06/16 06:53:39;;;;;;;;;;;;;;;25.30;44.36;100288.35;105464;1285;62088;-82
2023/06/16 06:56:05;;;;;;;;;;;;;;;25.29;44.28;100288.92;105258;1285;61781;-81
2023/06/16 06:58:34;;;;;;;;;;;;;;;25.29;44.23;100290.35;105493;1285;60245;-82
2023/06/16 07:01:00;;;;;;;;;;;;;;;25.27;44.10;100291.60;105213;1285;67800;-83
2023/06/16 07:03:26;;;;;;;;;;;;;;;25.23;43.96;100294.55;105121;1284;62170;-82
2023/06/16 07:05:52;;;;;;;;;;;;;;;25.19;44.09;100290.05;105319;1285;62046;-82
2023/06/16 07:08:17;;;;;;;;;;;;;;;25.17;43.95;100290.11;105467;1287;60699;-82
2023/06/16 07:10:43;;;;;;;;;;;;;;;25.18;44.20;100285.61;105400;1285;62161;-83
2023/06/16 07:13:08;;;;;;;;;;;;;;;25.21;44.16;100275.27;105405;1284;60423;-82
2023/06/16 07:15:34;;;;;;;;;;;;;;;25.23;44.41;100273.66;104638;1284;864821;-83
2023/06/16 07:18:00;;;;;;;;;;;;;;;25.25;44.60;100277.05;104921;1291;62354;-82
2023/06/16 07:20:25;;;;;;;;;;;;;;;25.29;44.85;100270.55;104826;1291;62193;-83
2023/06/16 07:22:51;;;;;;;;;;;;;;;25.35;45.07;100273.75;104901;1295;62110;-83
2023/06/16 07:25:16;;;;;;;;;;;;;;;25.45;45.45;100278.17;104942;1296;62377;-83
2023/06/16 07:27:43;;;;;;;;;;;;;;;25.52;45.32;100276.25;104756;1291;60244;-86
2023/06/16 07:30:09;;;;;;;;;;;;;;;25.50;44.97;100273.23;105699;1291;60165;-83
2023/06/16 07:32:36;;;;;;;;;;;;;;;25.48;44.78;100273.54;105659;1291;60247;-83
2023/06/16 07:35:02;;;;;;;;;;;;;;;25.52;45.06;100273.50;105813;1291;60408;-87
2023/06/16 07:37:27;;;;;;;;;;;;;;;25.56;45.03;100276.20;105285;1291;62210;-83
2023/06/16 07:39:53;;;;;;;;;;;;;;;25.52;44.59;100278.21;104672;1294;60679;-83
2023/06/16 07:42:18;;;;;;;;;;;;;;;25.47;44.61;100275.83;104674;1291;63419;-83
2023/06/16 07:44:44;;;;;;;;;;;;;;;25.45;44.53;100275.66;104628;1296;60236;-83
2023/06/16 07:47:10;;;;;;;;;;;;;;;25.45;44.55;100274.11;104566;1291;67642;-83
2023/06/16 07:49:36;;;;;;;;;;;;;;;25.43;44.29;100273.90;105159;1288;60632;-82
2023/06/16 07:52:01;;;;;;;;;;;;;;;25.42;44.38;100277.80;105038;1290;62193;-83
2023/06/16 07:54:27;;;;;;;;;;;;;;;25.39;44.01;100279.88;105368;1288;62103;-83
2023/06/16 07:56:53;;;;;;;;;;;;;;;25.39;43.96;100277.13;105251;1286;62077;-83
2023/06/16 07:59:19;;;;;;;;;;;;;;;25.39;43.78;100269.59;105480;1285;60537;-83
2023/06/16 08:01:44;;;;;;;;;;;;;;;25.41;43.80;100272.48;105096;1288;62264;-83
2023/06/16 08:04:10;;;;;;;;;;;;;;;25.43;43.69;100268.31;106613;1285;60178;-83
2023/06/16 08:06:36;;;;;;;;;;;;;;;25.44;43.34;100268.16;106651;1285;59895;-83
2023/06/16 08:09:01;;;;;;;;;;;;;;;25.46;43.34;100273.07;106625;1285;59775;-83
2023/06/16 08:11:27;;;;;;;;;;;;;;;25.47;43.18;100274.00;106751;1284;60243;-83
2023/06/16 08:13:53;;;;;;;;;;;;;;;25.49;43.11;100272.08;106437;1285;60153;-83
2023/06/16 08:16:18;;;;;;;;;;;;;;;25.51;43.20;100273.61;106624;1283;60253;-83
2023/06/16 08:18:44;;;;;;;;;;;;;;;25.53;43.25;100270.70;105123;1288;62136;-82
2023/06/16 08:21:09;;;;;;;;;;;;;;;25.55;43.22;100268.52;105139;1288;62190;-82
2023/06/16 08:23:35;;;;;;;;;;;;;;;25.57;43.13;100267.80;105542;1285;60621;-83
2023/06/16 08:26:01;;;;;;;;;;;;;;;25.57;43.06;100266.16;105334;1291;62067;-82
2023/06/16 08:28:34;;;;;;;;;;;;;;;25.59;43.00;100265.65;105258;1288;62146;-82
2023/06/16 08:31:00;;;;;;;;;;;;;;;25.60;42.92;100263.17;106559;1286;66206;-83
2023/06/16 08:33:25;;;;;;;;;;;;;;;25.61;43.02;100262.20;105317;1289;62112;-83
2023/06/16 08:35:51;;;;;;;;;;;;;;;25.63;43.03;100261.85;104772;1285;59952;-83
2023/06/16 08:38:17;;;;;;;;;;;;;;;25.64;42.75;100259.23;104868;1291;62149;-82
2023/06/16 08:40:43;;;;;;;;;;;;;;;25.64;42.66;100258.32;104950;1286;61805;-83
2023/06/16 08:43:08;;;;;;;;;;;;;;;25.64;42.67;100254.86;104548;1288;67673;-82
2023/06/16 08:45:37;;;;;;;;;;;;;;;25.63;42.45;100252.14;104397;1285;63286;-83
2023/06/16 08:48:05;;;;;;;;;;;;;;;25.61;42.15;100248.89;104664;1289;62027;-83
2023/06/16 08:50:32;;;;;;;;;;;;;;;25.62;42.10;100246.66;105118;1285;63931;-83
2023/06/16 08:52:58;;;;;;;;;;;;;;;25.62;42.23;100247.84;105590;1288;67778;-82
2023/06/16 08:55:25;;;;;;;;;;;;;;;25.63;42.34;100247.77;106777;1284;60155;-82
2023/06/16 08:57:51;;;;;;;;;;;;;;;25.64;42.32;100244.42;106632;1285;59723;-83
2023/06/16 09:00:17;;;;;;;;;;;;;;;25.66;42.23;100240.27;106653;1289;59692;-83
2023/06/16 09:02:48;;;;;;;;;;;;;;;25.67;42.24;100242.66;106581;1286;60156;-83
2023/06/16 09:05:14;;;;;;;;;;;;;;;25.69;42.18;100243.08;105919;1286;62265;-83
2023/06/16 09:07:39;;;;;;;;;;;;;;;25.69;42.11;100241.43;104428;1285;62182;-82
2023/06/16 09:10:05;;;;;;;;;;;;;;;25.69;42.22;100242.14;104808;1288;62182;-82
2023/06/16 09:12:31;;;;;;;;;;;;;;;25.69;42.00;100239.64;104248;1289;62126;-82
2023/06/16 09:14:56;;;;;;;;;;;;;;;25.69;42.11;100241.37;104208;1285;62203;-82
2023/06/16 09:17:24;;;;;;;;;;;;;;;25.70;42.03;100244.39;104289;1286;62110;-83
2023/06/16 09:19:51;;;;;;;;;;;;;;;25.70;42.09;100239.86;104413;1285;62037;-82
2023/06/16 09:22:20;;;;;;;;;;;;;;;25.70;42.07;100241.67;104346;1291;65153;-82
2023/06/16 09:24:58;;;;;;;;;;;;;;;25.70;41.87;100239.76;104053;1284;66599;-83
2023/06/16 09:27:46;;;;;;;;;;;;;;;25.68;41.81;100238.25;104042;1288;62109;-83
2023/06/16 09:30:16;;;;;;;;;;;;;;;25.68;41.83;100239.02;104085;1288;62137;-82
2023/06/16 09:32:42;;;;;;;;;;;;;;;25.68;41.78;100239.22;104206;1288;64598;-82
2023/06/16 09:35:17;;;;;;;;;;;;;;;25.67;41.70;100241.48;104083;1285;62182;-82
2023/06/16 09:37:50;;;;;;;;;;;;;;;25.66;41.71;100235.39;104437;1286;62156;-83
2023/06/16 09:40:16;;;;;;;;;;;;;;;25.66;41.57;100233.45;104220;1284;62174;-83
2023/06/16 09:42:42;;;;;;;;;;;;;;;25.65;41.56;100230.85;104143;1289;62205;-82
2023/06/16 09:45:14;;;;;;;;;;;;;;;25.65;41.74;100233.55;104954;1290;62101;-82
2023/06/16 09:47:46;;;;;;;;;;;;;;;25.64;41.64;100234.15;104122;1285;62090;-82
2023/06/16 09:50:13;;;;;;;;;;;;;;;25.63;41.64;100230.13;103853;1283;62116;-83
2023/06/16 09:52:38;;;;;;;;;;;;;;;25.62;41.43;100229.88;103981;1291;64900;-82
2023/06/16 09:55:05;;;;;;;;;;;;;;;25.62;41.63;100228.63;104049;1286;62347;-82
2023/06/16 09:57:31;;;;;;;;;;;;;;;25.62;41.54;100228.42;103907;1285;62239;-82
2023/06/16 09:59:58;;;;;;;;;;;;;;;25.62;41.46;100228.60;104169;1291;62201;-83
2023/06/16 10:02:23;;;;;;;;;;;;;;;25.62;41.57;100227.00;104247;1285;62101;-82
2023/06/16 10:04:53;;;;;;;;;;;;;;;25.62;41.69;100229.20;104159;1285;62109;-83
2023/06/16 10:07:18;;;;;;;;;;;;;;;25.62;41.49;100229.00;104485;1285;62192;-83
2023/06/16 10:09:47;;;;;;;;;;;;;;;25.62;41.47;100229.00;104350;1289;62165;-82
2023/06/16 10:12:13;;;;;;;;;;;;;;;25.62;41.47;100225.73;104200;1285;65140;-82
2023/06/16 10:14:38;;;;;;;;;;;;;;;25.62;41.55;100227.55;103928;1289;62192;-83
2023/06/16 10:17:06;;;;;;;;;;;;;;;25.62;41.43;100224.27;104306;1287;62245;-81
2023/06/16 10:19:31;;;;;;;;;;;;;;;25.62;41.46;100222.48;104198;1288;62091;-81
2023/06/16 10:21:58;;;;;;;;;;;;;;;25.62;41.26;100224.65;103949;1285;62737;-82
2023/06/16 10:24:24;;;;;;;;;;;;;;;25.62;41.29;100224.50;104354;1298;62172;-82
2023/06/16 10:26:50;;;;;;;;;;;;;;;25.62;41.45;100218.59;104226;1291;63337;-82
2023/06/16 10:29:17;;;;;;;;;;;;;;;25.62;41.22;100219.44;104266;1288;62207;-81
2023/06/16 10:31:43;;;;;;;;;;;;;;;25.62;41.29;100222.30;103875;1291;62081;-81
2023/06/16 10:34:10;;;;;;;;;;;;;;;25.63;41.32;100223.50;104049;1290;62257;-82
2023/06/16 10:36:36;;;;;;;;;;;;;;;25.63;41.16;100221.30;104419;1285;62197;-82
2023/06/16 10:39:09;;;;;;;;;;;;;;;25.63;41.19;100223.30;104337;1288;62147;-82
2023/06/16 10:41:47;;;;;;;;;;;;;;;25.63;41.10;100222.93;104473;1289;64755;-81
2023/06/16 10:44:26;;;;;;;;;;;;;;;25.64;41.21;100219.44;104142;1290;66704;-81
2023/06/16 10:47:15;;;;;;;;;;;;;;;25.64;41.18;100216.20;104212;1285;62786;-81
2023/06/16 10:49:43;;;;;;;;;;;;;;;25.64;41.10;100211.69;104173;1286;62070;-81
2023/06/16 10:52:09;;;;;;;;;;;;;;;25.64;40.99;100213.61;103947;1288;64733;-81
2023/06/16 10:54:35;;;;;;;;;;;;;;;25.64;40.96;100214.50;103760;1291;62291;-82
2023/06/16 10:57:03;;;;;;;;;;;;;;;25.65;40.86;100209.00;104019;1289;62668;-81
2023/06/16 10:59:29;;;;;;;;;;;;;;;25.65;40.81;100207.00;104143;1289;62099;-81
2023/06/16 11:01:56;;;;;;;;;;;;;;;25.66;40.87;100206.42;104073;1291;62206;-82
2023/06/16 11:04:21;;;;;;;;;;;;;;;25.66;40.87;100204.44;105427;1286;62408;-81
2023/06/16 11:07:09;;;;;;;;;;;;;;;25.66;40.90;100203.70;104273;1287;62186;-82
2023/06/16 11:09:36;;;;;;;;;;;;;;;25.67;40.81;100194.63;104386;1288;62109;-81
2023/06/16 11:12:02;;;;;;;;;;;;;;;25.67;41.04;100194.25;104262;1286;65203;-81
2023/06/16 11:14:27;;;;;;;;;;;;;;;25.67;40.90;100191.50;104343;1289;62226;-81
2023/06/16 11:16:53;;;;;;;;;;;;;;;25.68;40.98;100195.73;104455;1288;62102;-82
2023/06/16 11:19:18;;;;;;;;;;;;;;;25.68;40.83;100194.45;104008;1286;62729;-82
2023/06/16 11:21:44;;;;;;;;;;;;;;;25.69;40.86;100196.23;104558;1285;62215;-83
2023/06/16 11:24:13;;;;;;;;;;;;;;;25.69;40.83;100190.59;104209;1290;64922;-82
2023/06/16 11:26:39;;;;;;;;;;;;;;;25.70;40.81;100188.20;104186;1288;62122;-82
2023/06/16 11:29:05;;;;;;;;;;;;;;;25.70;40.80;100185.25;104143;1292;62085;-81
2023/06/16 11:31:31;;;;;;;;;;;;;;;25.70;40.81;100192.14;104177;1286;62202;-81
2023/06/16 11:33:56;;;;;;;;;;;;;;;25.71;40.62;100191.81;104031;1286;62113;-81
2023/06/16 11:36:22;;;;;;;;;;;;;;;25.71;40.71;100190.53;104126;1290;62182;-81
2023/06/16 11:38:52;;;;;;;;;;;;;;;25.72;40.80;100187.77;103900;1287;67540;-81
2023/06/16 11:41:18;;;;;;;;;;;;;;;25.72;40.60;100181.78;104043;1291;62105;-81
2023/06/16 11:43:44;;;;;;;;;;;;;;;25.72;40.60;100180.68;104944;1286;62271;-81
2023/06/16 11:46:10;;;;;;;;;;;;;;;25.73;40.63;100173.55;103878;1286;62114;-81
2023/06/16 11:48:37;;;;;;;;;;;;;;;25.74;40.55;100170.08;104052;1285;62679;-81
2023/06/16 11:51:03;;;;;;;;;;;;;;;25.75;40.74;100164.05;103774;1286;62133;-82
2023/06/16 11:53:30;;;;;;;;;;;;;;;25.75;40.74;100155.22;103769;1290;62253;-81
2023/06/16 11:55:59;;;;;;;;;;;;;;;25.75;40.79;100160.27;103773;1286;62108;-82
2023/06/16 11:58:26;;;;;;;;;;;;;;;25.75;40.60;100155.20;103838;1289;66472;-82
2023/06/16 12:00:54;;;;;;;;;;;;;;;25.75;40.76;100141.54;103680;1291;62514;-82
2023/06/16 12:03:21;;;;;;;;;;;;;;;25.75;40.76;100143.66;103812;1285;62187;-81
2023/06/16 12:05:46;;;;;;;;;;;;;;;25.75;40.52;100139.01;103862;1288;62145;-82
2023/06/16 12:08:12;;;;;;;;;;;;;;;25.75;40.61;100130.35;103590;1290;62254;-82
2023/06/16 12:10:37;;;;;;;;;;;;;;;25.75;40.55;100131.95;103608;1292;62280;-82
2023/06/16 12:13:06;;;;;;;;;;;;;;;25.75;40.61;100133.57;103486;1286;63457;-81
2023/06/16 12:15:32;;;;;;;;;;;;;;;25.75;40.72;100129.98;103590;1286;62249;-82
2023/06/16 12:17:57;;;;;;;;;;;;;;;25.74;40.64;100129.52;103612;1291;62615;-82
2023/06/16 12:20:23;;;;;;;;;;;;;;;25.74;40.70;100124.30;103771;1286;62662;-82
2023/06/16 12:22:53;;;;;;;;;;;;;;;25.74;40.65;100127.54;103970;1286;62276;-82